Airfield :
LOGIN :

Register | Disclaimer

   EN    FR    IT 

 










Legend :    VFR   Marginal VFR   IFR   Intensive IFR   Very Intensive IFR
Visi :
Ceiling :
>= 8 km
>= 3000ft
5 to 8 km
1000 to 3000 ft
1500m to 5 km
500 to 1000 ft
800 to 1500m
200 to 500 ft
< 800m
< 200 ft
Symbols :   Thunderstorms  Fog  Heavy snow  Heavy precipitations  Wind > 20 kt
SIGMETs :     Misc.  Thunderstorms  Icing  Turbulence  Mountain Waves  Volcanic Ashes






- Airport Elevation : 817 ft
- IATA code : VHY


LFLV - Vichy

CURRENT METAR :
  • 131630Z AUTO VRB03KT 9999 FEW058 21/10 Q1014

EXPIRED METARs :
  • 131600Z AUTO 03005KT CAVOK 21/10 Q1014
  • 131530Z AUTO VRB04KT 9999 FEW058 22/10 Q1014
  • 131500Z AUTO VRB03KT CAVOK 22/09 Q1015
  • 131430Z AUTO 35004KT 300V050 CAVOK 21/09 Q1015
  • 131400Z AUTO VRB02KT 9999 SCT058 21/10 Q1015
  • 131330Z AUTO VRB03KT 9999 FEW056 22/11 Q1015
  • 131300Z AUTO 35003KT 290V080 9999 BKN054 BKN066 20/09 Q1015
  • 131230Z AUTO VRB03KT CAVOK 20/10 Q1015
  • 131200Z AUTO VRB03KT 9999 SCT046 BKN060 20/10 Q1015

Expired Forecast.



MET'MAP, your aeronautical weather chart ! - Copyright ORBIFLY December 2007 - Disclaimer

ORBIFLY MET'MAP TEAM :

Programming & Development : Alexandra Zaïnal
Original concept : Baudouin d'Aumeries
Technical & hardware support : Manuel Goepfert
Assistance : Marc-Olivier Méhu




SOURCES & CREDITS :

   NOAA